createdAt,value
2023-01-09T00:02:22.532Z,61.96
2023-01-09T00:04:50.698Z,61.95
2023-01-09T00:07:19.581Z,61.92
2023-01-09T00:09:46.606Z,61.83
2023-01-09T00:12:13.871Z,61.78
2023-01-09T00:14:41.649Z,61.66
2023-01-09T00:17:12.789Z,61.53
2023-01-09T00:19:39.950Z,61.26
2023-01-09T00:22:10.245Z,60.88
2023-01-09T00:24:37.402Z,60.47
2023-01-09T00:27:04.881Z,60.01
2023-01-09T00:29:32.170Z,59.35
2023-01-09T00:31:59.241Z,59.21
2023-01-09T00:34:26.735Z,58.96
2023-01-09T00:36:55.860Z,58.64
2023-01-09T00:39:25.114Z,58.29
2023-01-09T00:41:53.847Z,58.03
2023-01-09T00:44:28.019Z,57.90
2023-01-09T00:46:57.788Z,57.93
2023-01-09T00:49:25.053Z,57.74
2023-01-09T00:51:54.395Z,57.70
2023-01-09T00:54:24.579Z,57.72
2023-01-09T00:56:52.544Z,57.83
2023-01-09T00:59:19.616Z,57.81
2023-01-09T01:01:47.019Z,57.69
2023-01-09T01:04:32.956Z,57.46
2023-01-09T01:07:18.625Z,57.51
2023-01-09T01:09:47.860Z,57.45
2023-01-09T01:12:15.023Z,57.40
2023-01-09T01:14:43.010Z,57.31
2023-01-09T01:17:10.594Z,57.30
2023-01-09T01:19:37.573Z,57.33
2023-01-09T01:22:05.330Z,57.36
2023-01-09T01:24:32.279Z,57.41
2023-01-09T01:26:59.372Z,57.37
2023-01-09T01:29:27.133Z,57.35
2023-01-09T01:31:54.141Z,57.40
2023-01-09T01:34:21.016Z,57.53
2023-01-09T01:36:48.173Z,57.47
2023-01-09T01:39:16.515Z,57.36
2023-01-09T01:41:43.479Z,57.40
2023-01-09T01:44:48.296Z,57.51
2023-01-09T01:47:15.262Z,57.50
2023-01-09T01:49:42.281Z,57.49
2023-01-09T01:52:10.383Z,57.60
2023-01-09T01:54:37.403Z,57.47
2023-01-09T01:57:04.954Z,57.47
2023-01-09T01:59:42.887Z,57.52
2023-01-09T02:02:09.867Z,57.51
2023-01-09T02:04:39.412Z,57.63
2023-01-09T02:07:08.799Z,57.79
2023-01-09T02:09:36.729Z,57.85
2023-01-09T02:12:24.276Z,57.97
2023-01-09T02:15:01.292Z,58.09
2023-01-09T02:17:53.053Z,58.22
2023-01-09T02:20:38.008Z,58.34
2023-01-09T02:23:26.195Z,58.47
2023-01-09T02:25:56.428Z,58.54
2023-01-09T02:28:42.456Z,58.74
2023-01-09T02:31:24.803Z,58.81
2023-01-09T02:34:17.290Z,58.84
2023-01-09T02:36:49.565Z,58.97
2023-01-09T02:39:27.474Z,59.01
2023-01-09T02:42:02.576Z,59.17
2023-01-09T02:44:34.574Z,59.23
2023-01-09T02:47:07.255Z,59.33
2023-01-09T02:49:35.728Z,59.39
2023-01-09T02:52:02.541Z,59.52
2023-01-09T02:54:49.710Z,59.62
2023-01-09T02:57:22.141Z,59.81
2023-01-09T02:59:49.652Z,59.93
2023-01-09T03:02:34.754Z,60.04
2023-01-09T03:05:08.444Z,60.10
2023-01-09T03:07:45.729Z,60.16
2023-01-09T03:10:18.195Z,60.19
2023-01-09T03:12:45.068Z,60.25
2023-01-09T03:15:13.211Z,60.29
2023-01-09T03:17:42.743Z,60.36
2023-01-09T03:20:10.553Z,60.41
2023-01-09T03:22:54.968Z,60.61
2023-01-09T03:25:22.240Z,60.86
2023-01-09T03:27:50.815Z,61.15
2023-01-09T03:30:18.277Z,61.28
2023-01-09T03:32:45.226Z,61.48
2023-01-09T03:35:12.240Z,61.61
2023-01-09T03:37:39.214Z,61.71
2023-01-09T03:40:07.028Z,61.84
2023-01-09T03:42:33.870Z,61.81
2023-01-09T03:45:01.093Z,61.87
2023-01-09T03:47:28.232Z,61.91
2023-01-09T03:49:55.266Z,61.90
2023-01-09T03:52:22.188Z,62.09
2023-01-09T03:54:49.126Z,61.99
2023-01-09T03:57:16.088Z,62.01
2023-01-09T03:59:43.063Z,62.00
2023-01-09T04:02:10.427Z,62.01
2023-01-09T04:04:37.461Z,62.03
2023-01-09T04:07:04.753Z,62.03
2023-01-09T04:09:31.620Z,62.07
2023-01-09T04:11:58.840Z,62.15
2023-01-09T04:14:25.911Z,62.35
2023-01-09T04:16:52.888Z,62.46
2023-01-09T04:19:19.920Z,62.57
2023-01-09T04:21:47.006Z,62.63
2023-01-09T04:24:13.930Z,62.73
2023-01-09T04:26:40.949Z,62.76
2023-01-09T04:29:07.817Z,62.80
2023-01-09T04:31:34.879Z,62.89
2023-01-09T04:34:01.848Z,62.97
2023-01-09T04:36:28.848Z,62.99
2023-01-09T04:38:55.856Z,63.11
2023-01-09T04:41:41.303Z,63.10
2023-01-09T04:44:08.540Z,63.19
2023-01-09T04:46:35.428Z,63.17
2023-01-09T04:49:02.405Z,63.23
2023-01-09T04:51:29.542Z,63.32
2023-01-09T04:53:57.887Z,63.37
2023-01-09T04:56:25.025Z,63.41
2023-01-09T04:58:52.283Z,63.44
2023-01-09T05:01:20.021Z,63.50
2023-01-09T05:03:47.085Z,63.58
2023-01-09T05:06:14.100Z,63.66
2023-01-09T05:08:41.143Z,63.66
2023-01-09T05:11:08.366Z,63.72
2023-01-09T05:13:35.223Z,63.64
2023-01-09T05:16:02.934Z,63.63
2023-01-09T05:18:29.872Z,63.71
2023-01-09T05:20:56.928Z,63.76
2023-01-09T05:23:24.201Z,63.82
2023-01-09T05:25:51.115Z,63.86
2023-01-09T05:28:18.182Z,63.82
2023-01-09T05:30:45.138Z,63.77
2023-01-09T05:33:12.539Z,63.79
2023-01-09T05:35:39.989Z,63.82
2023-01-09T05:38:07.150Z,63.86
2023-01-09T05:40:40.016Z,63.99
2023-01-09T05:43:07.964Z,63.98
2023-01-09T05:45:35.689Z,64.03
2023-01-09T05:48:02.996Z,64.04
2023-01-09T05:50:30.219Z,64.03
2023-01-09T05:52:57.329Z,63.97
2023-01-09T05:55:24.542Z,63.94
2023-01-09T05:57:51.666Z,64.02
2023-01-09T06:00:19.253Z,64.09
2023-01-09T06:02:46.216Z,64.12
2023-01-09T06:05:13.278Z,64.07
2023-01-09T06:07:42.536Z,64.24
2023-01-09T06:10:15.789Z,64.46
2023-01-09T06:12:48.554Z,64.64
2023-01-09T06:15:16.655Z,64.91
2023-01-09T06:17:43.857Z,65.08
2023-01-09T06:20:11.184Z,65.25
2023-01-09T06:22:38.778Z,65.35
2023-01-09T06:25:08.420Z,65.45
2023-01-09T06:27:36.010Z,65.67
2023-01-09T06:30:03.681Z,65.89
2023-01-09T06:32:30.750Z,66.00
2023-01-09T06:34:57.736Z,66.13
2023-01-09T06:37:25.069Z,66.32
2023-01-09T06:39:54.173Z,66.52
2023-01-09T06:42:22.075Z,66.67
2023-01-09T06:44:48.918Z,66.87
2023-01-09T06:47:16.119Z,66.97
2023-01-09T06:49:43.522Z,67.18
2023-01-09T06:52:11.301Z,67.23
2023-01-09T06:54:38.763Z,67.36
2023-01-09T06:57:07.488Z,67.54
2023-01-09T06:59:35.864Z,67.68
2023-01-09T07:02:03.057Z,67.78
2023-01-09T07:04:30.120Z,67.91
2023-01-09T07:06:57.019Z,67.98
2023-01-09T07:09:23.933Z,68.12
2023-01-09T07:11:50.865Z,68.23
2023-01-09T07:14:17.722Z,68.31
2023-01-09T07:16:44.512Z,68.43
2023-01-09T07:19:11.369Z,68.54
2023-01-09T07:21:38.228Z,68.67
2023-01-09T07:24:05.460Z,68.71
2023-01-09T07:26:32.363Z,68.79
2023-01-09T07:28:59.298Z,68.86
2023-01-09T07:31:26.187Z,68.80
2023-01-09T07:33:53.121Z,68.83
2023-01-09T07:36:20.016Z,68.82
2023-01-09T07:38:47.041Z,68.85
2023-01-09T07:41:13.979Z,68.82
2023-01-09T07:43:40.849Z,68.78
2023-01-09T07:46:07.955Z,68.71
2023-01-09T07:48:35.376Z,68.66
2023-01-09T07:51:02.266Z,68.70
2023-01-09T07:53:29.184Z,68.75
2023-01-09T07:55:57.343Z,68.79
2023-01-09T07:58:24.265Z,68.80
2023-01-09T08:00:51.881Z,68.86
2023-01-09T08:03:18.877Z,68.90
2023-01-09T08:05:46.394Z,68.95
2023-01-09T08:08:14.995Z,68.96
2023-01-09T08:10:42.448Z,69.03
2023-01-09T08:13:10.239Z,69.07
2023-01-09T08:15:37.432Z,69.11
2023-01-09T08:18:04.750Z,69.16
2023-01-09T08:20:36.531Z,69.24
2023-01-09T08:23:08.730Z,69.28
2023-01-09T08:25:36.186Z,69.34
2023-01-09T08:28:03.166Z,69.36
2023-01-09T08:30:30.182Z,69.45
2023-01-09T08:32:57.441Z,69.51
2023-01-09T08:35:25.462Z,69.56
2023-01-09T08:37:53.534Z,69.56
2023-01-09T08:40:20.524Z,69.52
2023-01-09T08:43:06.012Z,69.54
2023-01-09T08:45:51.831Z,69.50
2023-01-09T08:48:20.397Z,69.44
2023-01-09T08:50:47.464Z,69.31
2023-01-09T08:53:15.607Z,69.35
2023-01-09T08:55:43.622Z,69.23
2023-01-09T08:58:12.980Z,69.06
2023-01-09T09:00:40.495Z,68.92
2023-01-09T09:03:12.646Z,68.90
2023-01-09T09:05:41.879Z,68.86
2023-01-09T09:08:08.949Z,68.93
2023-01-09T09:10:36.563Z,68.89
2023-01-09T09:13:04.546Z,68.90
2023-01-09T09:15:35.317Z,68.82
2023-01-09T09:18:04.011Z,68.91
2023-01-09T09:20:32.687Z,68.86
2023-01-09T09:22:59.676Z,68.77
2023-01-09T09:25:26.688Z,68.61
2023-01-09T09:27:59.218Z,68.58
2023-01-09T09:30:27.364Z,68.65
2023-01-09T09:32:56.005Z,68.68
2023-01-09T09:35:26.445Z,68.64
2023-01-09T09:37:57.544Z,68.67
2023-01-09T09:40:46.682Z,68.76
2023-01-09T09:44:11.256Z,68.88
2023-01-09T09:46:46.481Z,69.13
2023-01-09T09:49:32.366Z,69.30
2023-01-09T09:52:14.639Z,69.40
2023-01-09T09:54:48.428Z,69.47
2023-01-09T09:57:23.417Z,69.52
2023-01-09T09:59:54.505Z,69.45
2023-01-09T10:02:33.247Z,69.36
2023-01-09T10:05:10.519Z,69.25
2023-01-09T10:07:44.401Z,69.10
2023-01-09T10:10:25.371Z,69.05
2023-01-09T10:12:56.485Z,68.94
2023-01-09T10:15:30.442Z,68.90
2023-01-09T10:18:25.424Z,68.83
2023-01-09T10:21:31.401Z,68.78
2023-01-09T10:24:15.408Z,68.76
2023-01-09T10:26:49.513Z,68.69
2023-01-09T10:29:37.980Z,68.67
2023-01-09T10:33:02.879Z,68.72
2023-01-09T10:35:56.913Z,68.76
2023-01-09T10:38:30.456Z,68.83
2023-01-09T10:41:18.437Z,68.88
2023-01-09T10:43:54.447Z,68.93
2023-01-09T10:46:27.030Z,68.95
2023-01-09T10:56:28.023Z,69.17
2023-01-09T10:58:55.361Z,69.21
2023-01-09T11:01:32.792Z,69.23
2023-01-09T11:04:01.978Z,69.16
2023-01-09T11:06:43.947Z,69.20
2023-01-09T11:09:10.923Z,69.15
2023-01-09T11:11:41.296Z,69.04
2023-01-09T11:14:27.910Z,69.00
2023-01-09T11:16:56.495Z,69.12
2023-01-09T11:19:24.407Z,69.20
2023-01-09T11:22:16.335Z,69.30
2023-01-09T11:24:43.851Z,69.32
2023-01-09T11:27:13.870Z,69.47
2023-01-09T11:29:43.723Z,69.48
2023-01-09T11:32:24.241Z,69.45
2023-01-09T11:34:51.174Z,69.48
2023-01-09T11:37:26.328Z,69.50
2023-01-09T11:39:53.250Z,69.49
2023-01-09T11:42:46.173Z,69.42
2023-01-09T11:45:20.288Z,69.43
2023-01-09T11:47:47.135Z,69.45
2023-01-09T11:50:25.011Z,69.46
2023-01-09T11:53:24.818Z,69.57
2023-01-09T11:56:01.275Z,69.49
2023-01-09T11:58:35.024Z,69.54
2023-01-09T12:01:39.532Z,69.67
2023-01-09T12:04:31.887Z,69.88
2023-01-09T12:07:21.994Z,70.27
2023-01-09T12:09:55.158Z,70.64
2023-01-09T12:12:22.116Z,70.87
2023-01-09T12:15:14.059Z,71.13
2023-01-09T12:18:04.238Z,71.29
2023-01-09T12:20:50.135Z,71.44
2023-01-09T12:23:42.068Z,71.48
2023-01-09T12:26:21.088Z,71.53
2023-01-09T12:29:34.504Z,71.48
2023-01-09T12:32:09.913Z,71.56
2023-01-09T12:34:40.395Z,71.59
2023-01-09T12:37:38.098Z,71.54
2023-01-09T12:40:22.003Z,71.58
2023-01-09T12:43:08.172Z,71.55
2023-01-09T12:45:58.428Z,71.49
2023-01-09T12:49:03.836Z,71.42
2023-01-09T12:51:55.442Z,71.51
2023-01-09T12:54:54.858Z,71.39
2023-01-09T12:57:42.313Z,71.27
2023-01-09T13:00:35.739Z,71.18
2023-01-09T13:03:24.209Z,71.10
2023-01-09T13:05:53.346Z,70.96
2023-01-09T13:08:32.086Z,70.77
2023-01-09T13:11:20.448Z,70.79
2023-01-09T13:13:50.925Z,70.65
2023-01-09T13:16:21.017Z,70.50
2023-01-09T13:19:12.747Z,70.42
2023-01-09T13:21:39.781Z,70.32
2023-01-09T13:24:06.765Z,70.14
2023-01-09T13:26:40.238Z,69.93
2023-01-09T13:29:06.944Z,69.81
2023-01-09T13:32:11.648Z,69.62
2023-01-09T13:34:38.908Z,69.16
2023-01-09T13:37:05.881Z,68.85
2023-01-09T13:39:35.235Z,68.54
2023-01-09T13:42:25.541Z,68.40
2023-01-09T13:44:56.822Z,68.22
2023-01-09T13:47:29.691Z,67.99
2023-01-09T13:50:06.324Z,67.84
2023-01-09T13:52:37.009Z,67.65
2023-01-09T13:55:16.618Z,67.48
2023-01-09T13:58:05.772Z,67.24
2023-01-09T14:00:35.815Z,66.94
2023-01-09T14:03:18.072Z,66.76
2023-01-09T14:05:45.070Z,66.56
2023-01-09T14:08:26.051Z,66.21
2023-01-09T14:11:01.141Z,66.09
2023-01-09T14:13:33.038Z,65.80
2023-01-09T14:16:20.826Z,65.47
2023-01-09T14:18:49.290Z,65.03
2023-01-09T14:21:16.556Z,64.22
2023-01-09T14:24:02.139Z,63.80
2023-01-09T14:26:56.752Z,63.36
2023-01-09T14:29:41.426Z,63.11
2023-01-09T14:32:23.736Z,63.02
2023-01-09T14:35:18.409Z,62.85
2023-01-09T14:37:49.482Z,62.70
2023-01-09T14:40:21.760Z,62.53
2023-01-09T14:42:52.021Z,62.28
2023-01-09T14:45:22.209Z,62.09
2023-01-09T14:48:00.876Z,61.86
2023-01-09T14:50:45.159Z,61.47
2023-01-09T14:53:29.367Z,61.40
2023-01-09T14:55:58.158Z,61.39
2023-01-09T14:58:32.811Z,61.39
2023-01-09T15:01:03.030Z,61.35
2023-01-09T15:03:39.757Z,61.32
2023-01-09T15:06:07.066Z,61.18
2023-01-09T15:08:33.958Z,61.12
2023-01-09T15:11:00.932Z,61.03
2023-01-09T15:13:35.568Z,61.06
2023-01-09T15:16:06.741Z,61.13
2023-01-09T15:18:39.990Z,61.11
2023-01-09T15:21:06.831Z,61.13
2023-01-09T15:23:33.771Z,61.22
2023-01-09T15:26:21.710Z,61.06
2023-01-09T15:28:48.676Z,60.97
2023-01-09T15:31:19.335Z,61.02
2023-01-09T15:33:46.757Z,61.06
2023-01-09T15:36:24.935Z,61.14
2023-01-09T15:38:52.200Z,61.02
2023-01-09T15:41:48.662Z,60.98
2023-01-09T15:44:21.666Z,61.00
2023-01-09T15:46:50.217Z,60.89
2023-01-09T15:49:17.293Z,60.83
2023-01-09T15:51:45.275Z,60.84
2023-01-09T15:54:16.430Z,60.82
2023-01-09T15:56:45.714Z,60.75
2023-01-09T15:59:22.875Z,60.57
2023-01-09T16:02:16.175Z,60.54
2023-01-09T16:04:43.090Z,60.47
2023-01-09T16:07:15.415Z,60.30
2023-01-09T16:09:44.537Z,60.12
2023-01-09T16:12:19.200Z,60.10
2023-01-09T16:14:50.790Z,60.18
2023-01-09T16:17:18.365Z,59.91
2023-01-09T16:19:52.334Z,59.68
2023-01-09T16:22:23.486Z,59.61
2023-01-09T16:24:54.404Z,59.63
2023-01-09T16:27:24.833Z,59.48
2023-01-09T16:29:58.114Z,59.41
2023-01-09T16:40:25.613Z,59.17
2023-01-09T16:43:05.572Z,59.13
2023-01-09T16:45:33.360Z,59.06
2023-01-09T16:48:01.703Z,58.97
2023-01-09T16:50:28.753Z,58.81
2023-01-09T16:52:56.565Z,58.69
2023-01-09T16:55:23.698Z,58.62
2023-01-09T16:57:50.811Z,58.53
2023-01-09T17:00:20.001Z,58.51
2023-01-09T17:02:47.152Z,58.45
2023-01-09T17:05:14.528Z,58.38
2023-01-09T17:07:41.559Z,58.33
2023-01-09T17:10:16.096Z,58.20
2023-01-09T17:12:43.031Z,58.09
2023-01-09T17:15:10.892Z,57.92
2023-01-09T17:17:38.636Z,57.86
2023-01-09T17:20:15.230Z,57.84
2023-01-09T17:22:42.282Z,57.78
2023-01-09T17:25:32.443Z,57.61
2023-01-09T17:28:19.417Z,57.54
2023-01-09T17:30:46.440Z,57.25
2023-01-09T17:33:17.458Z,57.16
2023-01-09T17:35:44.741Z,57.12
2023-01-09T17:38:15.557Z,57.04
2023-01-09T17:40:44.157Z,57.00
2023-01-09T17:43:11.299Z,56.93
2023-01-09T17:45:41.184Z,56.97
2023-01-09T17:48:17.251Z,57.01
2023-01-09T17:50:44.983Z,57.08
2023-01-09T17:53:11.930Z,57.20
2023-01-09T17:55:39.423Z,57.14
2023-01-09T17:58:06.266Z,57.32
2023-01-09T18:00:36.808Z,57.51
2023-01-09T18:03:04.824Z,57.55
2023-01-09T18:05:31.842Z,57.64
2023-01-09T18:07:58.913Z,57.69
2023-01-09T18:10:27.423Z,57.71
2023-01-09T18:12:55.121Z,57.87
2023-01-09T18:15:24.543Z,57.95
2023-01-09T18:17:52.125Z,57.96
2023-01-09T18:20:19.545Z,58.06
2023-01-09T18:22:47.801Z,58.18
2023-01-09T18:25:15.276Z,58.24
2023-01-09T18:27:42.236Z,58.30
2023-01-09T18:30:10.592Z,58.28
2023-01-09T18:32:39.114Z,58.35
2023-01-09T18:35:06.048Z,58.44
2023-01-09T18:37:33.120Z,58.57
2023-01-09T18:40:00.228Z,58.66
2023-01-09T18:42:27.369Z,58.71
2023-01-09T18:44:54.258Z,58.75
2023-01-09T18:47:25.182Z,58.74
2023-01-09T18:49:53.673Z,58.77
2023-01-09T18:52:21.703Z,58.72
2023-01-09T18:54:48.656Z,58.71
2023-01-09T18:57:15.588Z,58.63
2023-01-09T18:59:42.496Z,58.68
2023-01-09T19:02:20.028Z,58.67
2023-01-09T19:04:49.550Z,58.73
2023-01-09T19:07:16.675Z,58.68
2023-01-09T19:09:44.365Z,58.62
2023-01-09T19:12:11.511Z,58.51
2023-01-09T19:14:38.580Z,58.51
2023-01-09T19:17:05.482Z,58.48
2023-01-09T19:19:33.874Z,58.54
2023-01-09T19:22:00.912Z,58.56
2023-01-09T19:24:28.067Z,58.52
2023-01-09T19:26:55.013Z,58.55
2023-01-09T19:29:21.890Z,58.62
2023-01-09T19:31:49.129Z,58.53
2023-01-09T19:34:17.732Z,58.48
2023-01-09T19:36:45.046Z,58.35
2023-01-09T19:39:11.915Z,58.34
2023-01-09T19:41:38.834Z,58.12
2023-01-09T19:44:06.001Z,57.87
2023-01-09T19:46:36.458Z,57.61
2023-01-09T19:49:06.434Z,57.23
2023-01-09T19:51:33.582Z,57.06
2023-01-09T19:56:35.718Z,56.52
2023-01-09T19:59:03.383Z,56.14
2023-01-09T20:01:35.160Z,55.94
2023-01-09T20:04:05.075Z,55.39
2023-01-09T20:06:32.143Z,55.16
2023-01-09T20:09:00.815Z,55.03
2023-01-09T20:11:29.302Z,55.02
2023-01-09T20:13:57.036Z,54.70
2023-01-09T20:16:28.728Z,54.29
2023-01-09T20:18:57.862Z,54.26
2023-01-09T20:21:26.529Z,53.78
2023-01-09T20:23:55.867Z,53.60
2023-01-09T20:26:23.640Z,53.45
2023-01-09T20:28:50.631Z,53.39
2023-01-09T20:31:19.184Z,53.26
2023-01-09T20:33:48.820Z,53.19
2023-01-09T20:36:15.725Z,52.85
2023-01-09T20:38:43.676Z,52.23
2023-01-09T20:41:22.849Z,51.68
2023-01-09T20:44:00.977Z,51.44
2023-01-09T20:46:29.992Z,51.41
2023-01-09T20:48:58.556Z,51.03
2023-01-09T20:51:26.115Z,51.04
2023-01-09T20:53:56.020Z,50.89
2023-01-09T20:56:23.985Z,50.57
2023-01-09T20:58:51.335Z,50.29
2023-01-09T21:01:18.522Z,49.76
2023-01-09T21:03:45.426Z,49.60
2023-01-09T21:06:14.091Z,49.67
2023-01-09T21:08:43.068Z,49.28
2023-01-09T21:11:10.378Z,49.04
2023-01-09T21:13:37.735Z,49.08
2023-01-09T21:16:08.903Z,49.01
2023-01-09T21:18:36.951Z,49.02
2023-01-09T21:21:09.156Z,48.80
2023-01-09T21:23:36.237Z,48.91
2023-01-09T21:26:11.791Z,49.24
2023-01-09T21:28:49.235Z,49.49
2023-01-09T21:31:17.908Z,49.60
2023-01-09T21:33:45.298Z,49.42
2023-01-09T21:36:12.389Z,49.45
2023-01-09T21:38:39.467Z,49.48
2023-01-09T21:41:25.638Z,49.64
2023-01-09T21:44:11.247Z,49.72
2023-01-09T21:46:53.638Z,49.92
2023-01-09T21:49:20.684Z,49.90
2023-01-09T21:51:47.725Z,49.95
2023-01-09T21:54:14.812Z,50.04
2023-01-09T21:56:41.651Z,50.47
2023-01-09T21:59:08.876Z,50.83
2023-01-09T22:01:36.147Z,51.04
2023-01-09T22:04:03.096Z,51.27
2023-01-09T22:06:30.338Z,51.58
2023-01-09T22:08:57.265Z,51.78
2023-01-09T22:11:24.207Z,51.89
2023-01-09T22:13:51.370Z,51.98
2023-01-09T22:16:18.456Z,52.09
2023-01-09T22:18:45.662Z,52.20
2023-01-09T22:21:12.754Z,52.22
2023-01-09T22:23:39.741Z,52.25
2023-01-09T22:26:10.694Z,52.30
2023-01-09T22:28:37.696Z,52.29
2023-01-09T22:31:09.099Z,52.38
2023-01-09T22:33:36.958Z,52.39
2023-01-09T22:36:08.340Z,52.50
2023-01-09T22:38:35.557Z,52.65
2023-01-09T22:41:03.120Z,52.63
2023-01-09T22:43:30.365Z,52.72
2023-01-09T22:46:01.557Z,52.82
2023-01-09T22:48:31.697Z,52.93
2023-01-09T22:51:00.714Z,53.04
2023-01-09T22:53:28.692Z,53.07
2023-01-09T22:55:59.976Z,53.23
2023-01-09T22:58:27.717Z,53.32
2023-01-09T23:00:54.892Z,53.38
2023-01-09T23:03:21.944Z,53.49
2023-01-09T23:05:48.892Z,53.53
2023-01-09T23:08:16.000Z,53.69
2023-01-09T23:10:43.354Z,53.78
2023-01-09T23:13:11.221Z,53.86
2023-01-09T23:15:38.372Z,53.91
2023-01-09T23:18:06.503Z,54.08
2023-01-09T23:20:34.028Z,54.18
2023-01-09T23:23:00.949Z,54.28
2023-01-09T23:25:28.404Z,54.42
2023-01-09T23:27:55.294Z,54.52
2023-01-09T23:30:22.293Z,54.60
2023-01-09T23:32:49.379Z,54.72
2023-01-09T23:35:16.408Z,54.78
2023-01-09T23:37:44.009Z,55.00
2023-01-09T23:40:11.969Z,55.10
2023-01-09T23:42:57.711Z,55.20
2023-01-09T23:45:24.647Z,55.37
2023-01-09T23:47:51.818Z,55.53
2023-01-09T23:50:18.903Z,55.53
2023-01-09T23:52:45.931Z,55.58
2023-01-09T23:55:12.941Z,55.70
2023-01-09T23:57:40.147Z,55.80
